sensor_id;sensor_type;location;lat;lon;timestamp;P1;durP1;ratioP1;P2;durP2;ratioP2
85156;SDS011;75524;50.698;7.196;2024-01-10T00:00:40;34.20;;;3.93;;
85156;SDS011;75524;50.698;7.196;2024-01-10T00:03:07;12.27;;;3.97;;
85156;SDS011;75524;50.698;7.196;2024-01-10T00:05:33;14.40;;;5.27;;
85156;SDS011;75524;50.698;7.196;2024-01-10T00:08:00;2.93;;;2.70;;
85156;SDS011;75524;50.698;7.196;2024-01-10T00:10:26;7.35;;;3.60;;
85156;SDS011;75524;50.698;7.196;2024-01-10T00:12:53;3.33;;;3.03;;
85156;SDS011;75524;50.698;7.196;2024-01-10T00:15:19;4.45;;;2.00;;
85156;SDS011;75524;50.698;7.196;2024-01-10T00:17:45;6.38;;;2.63;;
85156;SDS011;75524;50.698;7.196;2024-01-10T00:20:12;1.23;;;1.10;;
85156;SDS011;75524;50.698;7.196;2024-01-10T00:22:39;4.90;;;1.58;;
85156;SDS011;75524;50.698;7.196;2024-01-10T00:25:05;6.40;;;3.20;;
85156;SDS011;75524;50.698;7.196;2024-01-10T00:27:32;4.05;;;2.30;;
85156;SDS011;75524;50.698;7.196;2024-01-10T00:29:58;2.28;;;1.52;;
85156;SDS011;75524;50.698;7.196;2024-01-10T00:32:25;3.13;;;1.55;;
85156;SDS011;75524;50.698;7.196;2024-01-10T00:34:51;1.23;;;1.20;;
85156;SDS011;75524;50.698;7.196;2024-01-10T00:37:18;2.07;;;1.37;;
85156;SDS011;75524;50.698;7.196;2024-01-10T00:39:44;5.60;;;2.13;;
85156;SDS011;75524;50.698;7.196;2024-01-10T00:42:11;3.47;;;3.17;;
85156;SDS011;75524;50.698;7.196;2024-01-10T00:44:37;1.67;;;1.58;;
85156;SDS011;75524;50.698;7.196;2024-01-10T00:47:04;3.20;;;2.50;;
85156;SDS011;75524;50.698;7.196;2024-01-10T00:49:31;2.33;;;2.22;;
85156;SDS011;75524;50.698;7.196;2024-01-10T00:51:57;2.80;;;1.85;;
85156;SDS011;75524;50.698;7.196;2024-01-10T00:54:25;7.20;;;2.70;;
85156;SDS011;75524;50.698;7.196;2024-01-10T00:56:51;2.33;;;2.07;;
85156;SDS011;75524;50.698;7.196;2024-01-10T00:59:18;1.85;;;1.52;;
85156;SDS011;75524;50.698;7.196;2024-01-10T01:01:44;8.90;;;1.60;;
85156;SDS011;75524;50.698;7.196;2024-01-10T01:04:11;1.17;;;1.17;;
85156;SDS011;75524;50.698;7.196;2024-01-10T01:06:37;1.33;;;1.27;;
85156;SDS011;75524;50.698;7.196;2024-01-10T01:09:04;2.67;;;1.83;;
85156;SDS011;75524;50.698;7.196;2024-01-10T01:11:30;2.80;;;1.50;;
85156;SDS011;75524;50.698;7.196;2024-01-10T01:13:57;1.30;;;1.30;;
85156;SDS011;75524;50.698;7.196;2024-01-10T01:16:23;6.13;;;1.57;;
85156;SDS011;75524;50.698;7.196;2024-01-10T01:18:50;0.77;;;0.77;;
85156;SDS011;75524;50.698;7.196;2024-01-10T01:21:16;2.13;;;2.03;;
85156;SDS011;75524;50.698;7.196;2024-01-10T01:23:43;1.47;;;1.37;;
85156;SDS011;75524;50.698;7.196;2024-01-10T01:26:10;3.90;;;1.90;;
85156;SDS011;75524;50.698;7.196;2024-01-10T01:28:36;1.10;;;1.10;;
85156;SDS011;75524;50.698;7.196;2024-01-10T01:31:03;3.47;;;1.27;;
85156;SDS011;75524;50.698;7.196;2024-01-10T01:33:30;10.13;;;1.90;;
85156;SDS011;75524;50.698;7.196;2024-01-10T01:35:56;2.13;;;2.03;;
85156;SDS011;75524;50.698;7.196;2024-01-10T01:38:23;1.77;;;1.67;;
85156;SDS011;75524;50.698;7.196;2024-01-10T01:40:49;5.22;;;1.85;;
85156;SDS011;75524;50.698;7.196;2024-01-10T01:45:48;1.60;;;1.50;;
85156;SDS011;75524;50.698;7.196;2024-01-10T01:48:22;1.70;;;1.60;;
85156;SDS011;75524;50.698;7.196;2024-01-10T01:50:52;1.38;;;1.33;;
85156;SDS011;75524;50.698;7.196;2024-01-10T01:53:24;2.73;;;2.00;;
85156;SDS011;75524;50.698;7.196;2024-01-10T01:55:51;3.13;;;1.53;;
85156;SDS011;75524;50.698;7.196;2024-01-10T01:58:18;4.40;;;2.33;;
85156;SDS011;75524;50.698;7.196;2024-01-10T02:00:46;1.42;;;1.38;;
85156;SDS011;75524;50.698;7.196;2024-01-10T02:03:13;2.73;;;2.47;;
85156;SDS011;75524;50.698;7.196;2024-01-10T02:05:39;5.03;;;2.17;;
85156;SDS011;75524;50.698;7.196;2024-01-10T02:08:06;1.63;;;1.53;;
85156;SDS011;75524;50.698;7.196;2024-01-10T02:10:34;1.65;;;1.10;;
85156;SDS011;75524;50.698;7.196;2024-01-10T02:13:01;1.48;;;1.38;;
85156;SDS011;75524;50.698;7.196;2024-01-10T02:15:28;1.10;;;0.93;;
85156;SDS011;75524;50.698;7.196;2024-01-10T02:17:54;4.47;;;1.67;;
85156;SDS011;75524;50.698;7.196;2024-01-10T02:20:22;4.23;;;1.90;;
85156;SDS011;75524;50.698;7.196;2024-01-10T02:22:48;5.33;;;2.07;;
85156;SDS011;75524;50.698;7.196;2024-01-10T02:25:17;2.47;;;2.07;;
85156;SDS011;75524;50.698;7.196;2024-01-10T02:27:43;3.00;;;2.37;;
85156;SDS011;75524;50.698;7.196;2024-01-10T02:30:10;2.83;;;1.90;;
85156;SDS011;75524;50.698;7.196;2024-01-10T02:32:37;6.15;;;2.22;;
85156;SDS011;75524;50.698;7.196;2024-01-10T02:35:04;1.00;;;1.00;;
85156;SDS011;75524;50.698;7.196;2024-01-10T02:37:31;2.17;;;1.80;;
85156;SDS011;75524;50.698;7.196;2024-01-10T02:39:58;1.10;;;1.10;;
85156;SDS011;75524;50.698;7.196;2024-01-10T02:42:24;2.47;;;2.25;;
85156;SDS011;75524;50.698;7.196;2024-01-10T02:44:50;1.75;;;1.63;;
85156;SDS011;75524;50.698;7.196;2024-01-10T02:47:17;6.03;;;1.50;;
85156;SDS011;75524;50.698;7.196;2024-01-10T02:49:43;2.23;;;2.03;;
85156;SDS011;75524;50.698;7.196;2024-01-10T02:52:10;1.63;;;1.53;;
85156;SDS011;75524;50.698;7.196;2024-01-10T02:54:36;1.80;;;1.63;;
85156;SDS011;75524;50.698;7.196;2024-01-10T02:57:03;3.60;;;2.17;;
85156;SDS011;75524;50.698;7.196;2024-01-10T02:59:29;4.25;;;2.22;;
85156;SDS011;75524;50.698;7.196;2024-01-10T03:01:56;1.58;;;1.40;;
85156;SDS011;75524;50.698;7.196;2024-01-10T03:04:22;1.83;;;1.70;;
85156;SDS011;75524;50.698;7.196;2024-01-10T03:06:49;1.52;;;1.42;;
85156;SDS011;75524;50.698;7.196;2024-01-10T03:09:16;1.88;;;1.27;;
85156;SDS011;75524;50.698;7.196;2024-01-10T03:11:43;4.33;;;2.43;;
85156;SDS011;75524;50.698;7.196;2024-01-10T03:14:09;2.00;;;1.90;;
85156;SDS011;75524;50.698;7.196;2024-01-10T03:16:37;2.58;;;2.38;;
85156;SDS011;75524;50.698;7.196;2024-01-10T03:19:04;4.05;;;2.83;;
85156;SDS011;75524;50.698;7.196;2024-01-10T03:21:30;2.88;;;2.10;;
85156;SDS011;75524;50.698;7.196;2024-01-10T03:23:58;2.50;;;1.65;;
85156;SDS011;75524;50.698;7.196;2024-01-10T03:26:26;1.90;;;1.80;;
85156;SDS011;75524;50.698;7.196;2024-01-10T03:28:53;2.03;;;1.90;;
85156;SDS011;75524;50.698;7.196;2024-01-10T03:31:20;1.90;;;0.90;;
85156;SDS011;75524;50.698;7.196;2024-01-10T03:33:46;2.10;;;2.00;;
85156;SDS011;75524;50.698;7.196;2024-01-10T03:36:14;2.47;;;1.60;;
85156;SDS011;75524;50.698;7.196;2024-01-10T03:38:43;2.33;;;2.13;;
85156;SDS011;75524;50.698;7.196;2024-01-10T03:41:19;1.73;;;1.50;;
85156;SDS011;75524;50.698;7.196;2024-01-10T03:43:46;5.40;;;2.90;;
85156;SDS011;75524;50.698;7.196;2024-01-10T03:46:13;2.37;;;2.17;;
85156;SDS011;75524;50.698;7.196;2024-01-10T03:48:40;2.97;;;1.43;;
85156;SDS011;75524;50.698;7.196;2024-01-10T03:51:17;1.10;;;1.10;;
85156;SDS011;75524;50.698;7.196;2024-01-10T03:53:45;2.20;;;2.03;;
85156;SDS011;75524;50.698;7.196;2024-01-10T03:56:11;1.70;;;1.60;;
85156;SDS011;75524;50.698;7.196;2024-01-10T03:58:39;1.17;;;1.17;;
85156;SDS011;75524;50.698;7.196;2024-01-10T04:01:05;7.50;;;2.40;;
85156;SDS011;75524;50.698;7.196;2024-01-10T04:03:33;1.93;;;1.77;;
85156;SDS011;75524;50.698;7.196;2024-01-10T04:06:01;1.55;;;1.35;;
85156;SDS011;75524;50.698;7.196;2024-01-10T04:08:28;2.10;;;2.00;;
85156;SDS011;75524;50.698;7.196;2024-01-10T04:10:55;4.00;;;2.37;;
85156;SDS011;75524;50.698;7.196;2024-01-10T04:13:21;1.67;;;1.48;;
85156;SDS011;75524;50.698;7.196;2024-01-10T04:15:48;1.33;;;1.33;;
85156;SDS011;75524;50.698;7.196;2024-01-10T04:18:15;1.95;;;1.70;;
85156;SDS011;75524;50.698;7.196;2024-01-10T04:20:43;2.25;;;2.08;;
85156;SDS011;75524;50.698;7.196;2024-01-10T04:23:10;3.80;;;1.75;;
85156;SDS011;75524;50.698;7.196;2024-01-10T04:25:37;10.43;;;1.90;;
85156;SDS011;75524;50.698;7.196;2024-01-10T04:28:04;2.00;;;1.63;;
85156;SDS011;75524;50.698;7.196;2024-01-10T04:30:30;1.50;;;1.40;;
85156;SDS011;75524;50.698;7.196;2024-01-10T04:32:57;3.20;;;2.13;;
85156;SDS011;75524;50.698;7.196;2024-01-10T04:35:23;2.33;;;2.05;;
85156;SDS011;75524;50.698;7.196;2024-01-10T04:37:50;2.83;;;2.57;;
85156;SDS011;75524;50.698;7.196;2024-01-10T04:40:17;4.87;;;1.83;;
85156;SDS011;75524;50.698;7.196;2024-01-10T04:42:44;11.67;;;1.70;;
85156;SDS011;75524;50.698;7.196;2024-01-10T04:45:10;2.17;;;1.93;;
85156;SDS011;75524;50.698;7.196;2024-01-10T04:47:37;2.03;;;1.83;;
85156;SDS011;75524;50.698;7.196;2024-01-10T04:50:03;2.03;;;1.77;;
85156;SDS011;75524;50.698;7.196;2024-01-10T04:52:33;1.70;;;1.60;;
85156;SDS011;75524;50.698;7.196;2024-01-10T04:55:00;15.67;;;1.37;;
85156;SDS011;75524;50.698;7.196;2024-01-10T04:57:26;3.80;;;2.60;;
85156;SDS011;75524;50.698;7.196;2024-01-10T04:59:52;2.50;;;2.27;;
85156;SDS011;75524;50.698;7.196;2024-01-10T05:02:19;4.03;;;2.03;;
85156;SDS011;75524;50.698;7.196;2024-01-10T05:04:46;1.77;;;1.67;;
85156;SDS011;75524;50.698;7.196;2024-01-10T05:07:14;4.10;;;2.75;;
85156;SDS011;75524;50.698;7.196;2024-01-10T05:09:40;3.07;;;2.40;;
85156;SDS011;75524;50.698;7.196;2024-01-10T05:12:07;7.23;;;2.57;;
85156;SDS011;75524;50.698;7.196;2024-01-10T05:14:33;8.07;;;3.00;;
85156;SDS011;75524;50.698;7.196;2024-01-10T05:17:00;4.73;;;3.27;;
85156;SDS011;75524;50.698;7.196;2024-01-10T05:19:26;1.40;;;1.30;;
85156;SDS011;75524;50.698;7.196;2024-01-10T05:21:53;12.33;;;3.60;;
85156;SDS011;75524;50.698;7.196;2024-01-10T05:24:20;4.47;;;3.40;;
85156;SDS011;75524;50.698;7.196;2024-01-10T05:26:47;5.67;;;2.83;;
85156;SDS011;75524;50.698;7.196;2024-01-10T05:29:17;3.67;;;1.73;;
85156;SDS011;75524;50.698;7.196;2024-01-10T05:31:46;8.03;;;2.67;;
85156;SDS011;75524;50.698;7.196;2024-01-10T05:34:12;1.70;;;1.60;;
85156;SDS011;75524;50.698;7.196;2024-01-10T05:36:39;3.97;;;2.63;;
85156;SDS011;75524;50.698;7.196;2024-01-10T05:39:05;3.83;;;2.23;;
85156;SDS011;75524;50.698;7.196;2024-01-10T05:41:32;12.10;;;2.53;;
85156;SDS011;75524;50.698;7.196;2024-01-10T05:43:58;3.13;;;1.93;;
85156;SDS011;75524;50.698;7.196;2024-01-10T05:46:25;4.00;;;3.23;;
85156;SDS011;75524;50.698;7.196;2024-01-10T05:48:54;13.23;;;3.90;;
85156;SDS011;75524;50.698;7.196;2024-01-10T05:51:20;9.93;;;3.00;;
85156;SDS011;75524;50.698;7.196;2024-01-10T05:53:47;4.70;;;2.53;;
85156;SDS011;75524;50.698;7.196;2024-01-10T05:56:13;8.40;;;3.33;;
85156;SDS011;75524;50.698;7.196;2024-01-10T05:58:41;5.70;;;2.23;;
85156;SDS011;75524;50.698;7.196;2024-01-10T06:01:07;8.53;;;4.87;;
85156;SDS011;75524;50.698;7.196;2024-01-10T06:03:36;7.57;;;3.07;;
85156;SDS011;75524;50.698;7.196;2024-01-10T06:06:03;2.40;;;2.03;;
85156;SDS011;75524;50.698;7.196;2024-01-10T06:08:30;7.80;;;4.63;;
85156;SDS011;75524;50.698;7.196;2024-01-10T06:10:57;14.83;;;3.40;;
85156;SDS011;75524;50.698;7.196;2024-01-10T06:13:23;8.40;;;4.13;;
85156;SDS011;75524;50.698;7.196;2024-01-10T06:15:50;7.17;;;2.67;;
85156;SDS011;75524;50.698;7.196;2024-01-10T06:18:16;4.47;;;2.53;;
85156;SDS011;75524;50.698;7.196;2024-01-10T06:20:43;4.70;;;2.53;;
85156;SDS011;75524;50.698;7.196;2024-01-10T06:23:09;12.13;;;3.60;;
85156;SDS011;75524;50.698;7.196;2024-01-10T06:25:36;4.93;;;3.07;;
85156;SDS011;75524;50.698;7.196;2024-01-10T06:28:03;9.17;;;2.60;;
85156;SDS011;75524;50.698;7.196;2024-01-10T06:30:32;12.67;;;4.20;;
85156;SDS011;75524;50.698;7.196;2024-01-10T06:32:59;5.80;;;3.17;;
85156;SDS011;75524;50.698;7.196;2024-01-10T06:35:26;14.23;;;4.50;;
85156;SDS011;75524;50.698;7.196;2024-01-10T06:37:53;12.30;;;4.50;;
85156;SDS011;75524;50.698;7.196;2024-01-10T06:40:19;12.57;;;1.93;;
85156;SDS011;75524;50.698;7.196;2024-01-10T06:42:48;7.03;;;4.13;;
85156;SDS011;75524;50.698;7.196;2024-01-10T06:45:14;10.30;;;4.07;;
85156;SDS011;75524;50.698;7.196;2024-01-10T06:47:41;10.23;;;3.37;;
85156;SDS011;75524;50.698;7.196;2024-01-10T06:50:08;10.97;;;3.33;;
85156;SDS011;75524;50.698;7.196;2024-01-10T06:52:35;10.10;;;5.47;;
85156;SDS011;75524;50.698;7.196;2024-01-10T06:55:01;6.93;;;2.57;;
85156;SDS011;75524;50.698;7.196;2024-01-10T06:57:30;17.20;;;4.77;;
85156;SDS011;75524;50.698;7.196;2024-01-10T06:59:56;8.20;;;5.57;;
85156;SDS011;75524;50.698;7.196;2024-01-10T07:02:23;3.93;;;3.03;;
85156;SDS011;75524;50.698;7.196;2024-01-10T07:04:49;4.43;;;3.23;;
85156;SDS011;75524;50.698;7.196;2024-01-10T07:07:16;11.57;;;6.30;;
85156;SDS011;75524;50.698;7.196;2024-01-10T07:09:43;9.00;;;4.80;;
85156;SDS011;75524;50.698;7.196;2024-01-10T07:12:10;8.03;;;3.40;;
85156;SDS011;75524;50.698;7.196;2024-01-10T07:14:36;8.68;;;3.92;;
85156;SDS011;75524;50.698;7.196;2024-01-10T07:17:03;8.73;;;3.77;;
85156;SDS011;75524;50.698;7.196;2024-01-10T07:19:30;5.13;;;4.07;;
85156;SDS011;75524;50.698;7.196;2024-01-10T07:21:57;9.93;;;3.17;;
85156;SDS011;75524;50.698;7.196;2024-01-10T07:24:23;6.90;;;3.42;;
85156;SDS011;75524;50.698;7.196;2024-01-10T07:26:50;2.50;;;2.33;;
85156;SDS011;75524;50.698;7.196;2024-01-10T07:29:17;5.90;;;2.97;;
85156;SDS011;75524;50.698;7.196;2024-01-10T07:31:45;16.37;;;4.63;;
85156;SDS011;75524;50.698;7.196;2024-01-10T07:34:12;1.90;;;1.73;;
85156;SDS011;75524;50.698;7.196;2024-01-10T07:36:42;3.50;;;3.20;;
85156;SDS011;75524;50.698;7.196;2024-01-10T07:39:10;4.67;;;3.10;;
85156;SDS011;75524;50.698;7.196;2024-01-10T07:41:45;8.93;;;2.93;;
85156;SDS011;75524;50.698;7.196;2024-01-10T07:44:12;4.97;;;2.70;;
85156;SDS011;75524;50.698;7.196;2024-01-10T07:46:38;8.30;;;4.43;;
85156;SDS011;75524;50.698;7.196;2024-01-10T07:49:05;6.33;;;3.10;;
85156;SDS011;75524;50.698;7.196;2024-01-10T07:51:32;8.00;;;3.13;;
85156;SDS011;75524;50.698;7.196;2024-01-10T07:53:58;11.10;;;2.10;;
85156;SDS011;75524;50.698;7.196;2024-01-10T07:56:25;3.67;;;2.57;;
85156;SDS011;75524;50.698;7.196;2024-01-10T07:58:52;4.07;;;2.87;;
85156;SDS011;75524;50.698;7.196;2024-01-10T08:01:19;1.93;;;1.73;;
85156;SDS011;75524;50.698;7.196;2024-01-10T08:03:45;4.90;;;2.27;;
85156;SDS011;75524;50.698;7.196;2024-01-10T08:06:12;9.97;;;3.20;;
85156;SDS011;75524;50.698;7.196;2024-01-10T08:08:52;3.40;;;2.00;;
85156;SDS011;75524;50.698;7.196;2024-01-10T08:11:18;5.03;;;2.37;;
85156;SDS011;75524;50.698;7.196;2024-01-10T08:13:45;9.43;;;4.47;;
85156;SDS011;75524;50.698;7.196;2024-01-10T08:16:12;7.53;;;3.80;;
85156;SDS011;75524;50.698;7.196;2024-01-10T08:18:40;12.53;;;5.03;;
85156;SDS011;75524;50.698;7.196;2024-01-10T08:21:06;7.17;;;3.17;;
85156;SDS011;75524;50.698;7.196;2024-01-10T08:23:33;7.43;;;3.57;;
85156;SDS011;75524;50.698;7.196;2024-01-10T08:25:59;14.20;;;4.40;;
85156;SDS011;75524;50.698;7.196;2024-01-10T08:28:26;5.03;;;4.37;;
85156;SDS011;75524;50.698;7.196;2024-01-10T08:33:31;8.67;;;3.57;;
85156;SDS011;75524;50.698;7.196;2024-01-10T08:35:58;16.50;;;4.97;;
85156;SDS011;75524;50.698;7.196;2024-01-10T08:38:25;10.10;;;3.80;;
85156;SDS011;75524;50.698;7.196;2024-01-10T08:40:52;7.03;;;3.33;;
85156;SDS011;75524;50.698;7.196;2024-01-10T08:43:19;16.40;;;5.50;;
85156;SDS011;75524;50.698;7.196;2024-01-10T08:45:46;25.23;;;6.23;;
85156;SDS011;75524;50.698;7.196;2024-01-10T08:48:12;5.17;;;3.70;;
85156;SDS011;75524;50.698;7.196;2024-01-10T08:50:39;3.57;;;2.73;;
85156;SDS011;75524;50.698;7.196;2024-01-10T08:53:06;16.10;;;5.53;;
85156;SDS011;75524;50.698;7.196;2024-01-10T08:55:33;12.73;;;4.73;;
85156;SDS011;75524;50.698;7.196;2024-01-10T08:58:00;21.20;;;4.40;;
85156;SDS011;75524;50.698;7.196;2024-01-10T09:00:27;9.43;;;5.17;;
85156;SDS011;75524;50.698;7.196;2024-01-10T09:02:54;17.60;;;4.20;;
85156;SDS011;75524;50.698;7.196;2024-01-10T09:05:21;9.43;;;4.27;;
85156;SDS011;75524;50.698;7.196;2024-01-10T09:07:48;7.47;;;3.07;;
85156;SDS011;75524;50.698;7.196;2024-01-10T09:10:15;17.30;;;5.57;;
85156;SDS011;75524;50.698;7.196;2024-01-10T09:12:42;3.70;;;2.97;;
85156;SDS011;75524;50.698;7.196;2024-01-10T09:15:12;15.07;;;5.83;;
85156;SDS011;75524;50.698;7.196;2024-01-10T09:17:43;15.03;;;5.73;;
85156;SDS011;75524;50.698;7.196;2024-01-10T09:20:11;16.27;;;7.47;;
85156;SDS011;75524;50.698;7.196;2024-01-10T09:22:38;16.00;;;4.83;;
85156;SDS011;75524;50.698;7.196;2024-01-10T09:25:05;15.27;;;5.10;;
85156;SDS011;75524;50.698;7.196;2024-01-10T09:27:32;14.73;;;4.23;;
85156;SDS011;75524;50.698;7.196;2024-01-10T09:30:00;11.80;;;5.00;;
85156;SDS011;75524;50.698;7.196;2024-01-10T09:32:30;38.20;;;9.67;;
85156;SDS011;75524;50.698;7.196;2024-01-10T09:34:56;16.33;;;5.33;;
85156;SDS011;75524;50.698;7.196;2024-01-10T09:37:27;19.90;;;4.63;;
85156;SDS011;75524;50.698;7.196;2024-01-10T09:39:53;7.10;;;4.10;;
85156;SDS011;75524;50.698;7.196;2024-01-10T09:42:20;12.63;;;4.63;;
85156;SDS011;75524;50.698;7.196;2024-01-10T09:44:53;13.47;;;4.17;;
85156;SDS011;75524;50.698;7.196;2024-01-10T09:47:21;8.40;;;4.43;;
85156;SDS011;75524;50.698;7.196;2024-01-10T09:49:49;18.03;;;7.27;;
85156;SDS011;75524;50.698;7.196;2024-01-10T09:52:18;18.37;;;6.77;;
85156;SDS011;75524;50.698;7.196;2024-01-10T09:54:53;12.10;;;4.13;;
85156;SDS011;75524;50.698;7.196;2024-01-10T09:57:23;19.07;;;6.67;;
85156;SDS011;75524;50.698;7.196;2024-01-10T09:59:50;19.33;;;7.00;;
85156;SDS011;75524;50.698;7.196;2024-01-10T10:02:18;13.93;;;5.70;;
85156;SDS011;75524;50.698;7.196;2024-01-10T10:04:49;17.30;;;7.13;;
85156;SDS011;75524;50.698;7.196;2024-01-10T10:07:23;11.00;;;4.43;;
85156;SDS011;75524;50.698;7.196;2024-01-10T10:09:50;11.77;;;5.07;;
85156;SDS011;75524;50.698;7.196;2024-01-10T10:12:19;17.00;;;5.27;;
85156;SDS011;75524;50.698;7.196;2024-01-10T10:14:46;16.37;;;6.57;;
85156;SDS011;75524;50.698;7.196;2024-01-10T10:17:16;19.03;;;7.23;;
85156;SDS011;75524;50.698;7.196;2024-01-10T10:19:44;12.67;;;6.97;;
85156;SDS011;75524;50.698;7.196;2024-01-10T10:22:11;14.73;;;6.13;;
85156;SDS011;75524;50.698;7.196;2024-01-10T10:24:37;17.03;;;7.17;;
85156;SDS011;75524;50.698;7.196;2024-01-10T10:27:08;10.17;;;4.80;;
85156;SDS011;75524;50.698;7.196;2024-01-10T10:29:36;21.43;;;5.57;;
85156;SDS011;75524;50.698;7.196;2024-01-10T10:32:06;11.93;;;6.10;;
85156;SDS011;75524;50.698;7.196;2024-01-10T10:34:35;16.67;;;7.20;;
85156;SDS011;75524;50.698;7.196;2024-01-10T10:37:01;15.00;;;6.20;;
85156;SDS011;75524;50.698;7.196;2024-01-10T10:39:29;18.93;;;6.40;;
85156;SDS011;75524;50.698;7.196;2024-01-10T10:41:55;13.57;;;5.40;;
85156;SDS011;75524;50.698;7.196;2024-01-10T10:44:24;18.80;;;8.40;;
85156;SDS011;75524;50.698;7.196;2024-01-10T10:46:54;16.33;;;5.70;;
85156;SDS011;75524;50.698;7.196;2024-01-10T10:49:39;18.60;;;7.03;;
85156;SDS011;75524;50.698;7.196;2024-01-10T10:52:17;22.20;;;7.00;;
85156;SDS011;75524;50.698;7.196;2024-01-10T10:54:46;15.67;;;6.37;;
85156;SDS011;75524;50.698;7.196;2024-01-10T10:57:14;12.77;;;5.80;;
85156;SDS011;75524;50.698;7.196;2024-01-10T10:59:43;21.97;;;7.90;;
85156;SDS011;75524;50.698;7.196;2024-01-10T11:02:12;19.30;;;7.57;;
85156;SDS011;75524;50.698;7.196;2024-01-10T11:04:46;23.67;;;8.47;;
85156;SDS011;75524;50.698;7.196;2024-01-10T11:07:14;24.20;;;8.37;;
85156;SDS011;75524;50.698;7.196;2024-01-10T11:09:41;16.73;;;7.07;;
85156;SDS011;75524;50.698;7.196;2024-01-10T11:20:39;16.50;;;6.53;;
85156;SDS011;75524;50.698;7.196;2024-01-10T11:25:57;18.20;;;7.67;;
85156;SDS011;75524;50.698;7.196;2024-01-10T11:28:25;18.60;;;7.10;;
85156;SDS011;75524;50.698;7.196;2024-01-10T11:30:54;21.03;;;6.83;;
85156;SDS011;75524;50.698;7.196;2024-01-10T11:33:23;32.00;;;8.43;;
85156;SDS011;75524;50.698;7.196;2024-01-10T11:36:07;18.50;;;7.77;;
85156;SDS011;75524;50.698;7.196;2024-01-10T11:38:48;25.10;;;9.13;;
85156;SDS011;75524;50.698;7.196;2024-01-10T11:46:39;23.77;;;8.60;;
85156;SDS011;75524;50.698;7.196;2024-01-10T11:49:08;22.60;;;9.37;;
85156;SDS011;75524;50.698;7.196;2024-01-10T11:51:35;17.20;;;7.87;;
85156;SDS011;75524;50.698;7.196;2024-01-10T11:54:02;23.33;;;7.90;;
85156;SDS011;75524;50.698;7.196;2024-01-10T11:56:39;22.43;;;9.30;;
85156;SDS011;75524;50.698;7.196;2024-01-10T11:59:10;23.03;;;9.13;;
85156;SDS011;75524;50.698;7.196;2024-01-10T12:01:38;21.07;;;7.83;;
85156;SDS011;75524;50.698;7.196;2024-01-10T12:04:06;19.10;;;9.03;;
85156;SDS011;75524;50.698;7.196;2024-01-10T12:06:45;21.60;;;8.60;;
85156;SDS011;75524;50.698;7.196;2024-01-10T12:09:13;20.67;;;8.77;;
85156;SDS011;75524;50.698;7.196;2024-01-10T12:11:40;18.83;;;7.13;;
85156;SDS011;75524;50.698;7.196;2024-01-10T12:14:10;21.07;;;7.20;;
85156;SDS011;75524;50.698;7.196;2024-01-10T12:16:36;23.30;;;7.90;;
85156;SDS011;75524;50.698;7.196;2024-01-10T12:19:03;21.93;;;9.50;;
85156;SDS011;75524;50.698;7.196;2024-01-10T12:21:30;26.73;;;10.33;;
85156;SDS011;75524;50.698;7.196;2024-01-10T12:23:56;33.90;;;10.53;;
85156;SDS011;75524;50.698;7.196;2024-01-10T12:26:23;19.63;;;8.50;;
85156;SDS011;75524;50.698;7.196;2024-01-10T12:28:53;19.83;;;7.77;;
85156;SDS011;75524;50.698;7.196;2024-01-10T12:31:21;19.23;;;7.97;;
85156;SDS011;75524;50.698;7.196;2024-01-10T12:33:52;15.20;;;7.33;;
85156;SDS011;75524;50.698;7.196;2024-01-10T12:36:21;24.27;;;10.20;;
85156;SDS011;75524;50.698;7.196;2024-01-10T12:38:48;21.90;;;8.67;;
85156;SDS011;75524;50.698;7.196;2024-01-10T12:41:15;16.37;;;7.90;;
85156;SDS011;75524;50.698;7.196;2024-01-10T12:43:48;23.00;;;8.80;;
85156;SDS011;75524;50.698;7.196;2024-01-10T12:46:21;23.53;;;9.43;;
85156;SDS011;75524;50.698;7.196;2024-01-10T12:49:02;26.30;;;9.30;;
85156;SDS011;75524;50.698;7.196;2024-01-10T12:51:31;22.73;;;8.67;;
85156;SDS011;75524;50.698;7.196;2024-01-10T12:53:59;23.27;;;7.80;;
85156;SDS011;75524;50.698;7.196;2024-01-10T12:56:27;17.60;;;7.67;;
85156;SDS011;75524;50.698;7.196;2024-01-10T12:58:54;34.30;;;8.90;;
85156;SDS011;75524;50.698;7.196;2024-01-10T13:01:22;24.80;;;8.77;;
85156;SDS011;75524;50.698;7.196;2024-01-10T13:03:50;20.93;;;9.00;;
85156;SDS011;75524;50.698;7.196;2024-01-10T13:06:17;26.10;;;8.23;;
85156;SDS011;75524;50.698;7.196;2024-01-10T13:08:45;22.53;;;9.20;;
85156;SDS011;75524;50.698;7.196;2024-01-10T13:11:12;25.23;;;8.67;;
85156;SDS011;75524;50.698;7.196;2024-01-10T13:13:40;40.63;;;10.50;;
85156;SDS011;75524;50.698;7.196;2024-01-10T13:16:09;22.73;;;9.60;;
85156;SDS011;75524;50.698;7.196;2024-01-10T13:18:39;17.03;;;7.33;;
85156;SDS011;75524;50.698;7.196;2024-01-10T13:21:06;29.73;;;11.60;;
85156;SDS011;75524;50.698;7.196;2024-01-10T13:23:32;26.03;;;10.40;;
85156;SDS011;75524;50.698;7.196;2024-01-10T13:26:00;24.57;;;8.87;;
85156;SDS011;75524;50.698;7.196;2024-01-10T13:28:26;27.20;;;10.40;;
85156;SDS011;75524;50.698;7.196;2024-01-10T13:30:54;62.90;;;18.10;;
85156;SDS011;75524;50.698;7.196;2024-01-10T13:33:22;33.30;;;12.07;;
85156;SDS011;75524;50.698;7.196;2024-01-10T13:35:49;30.97;;;11.73;;
85156;SDS011;75524;50.698;7.196;2024-01-10T13:38:16;26.50;;;10.73;;
85156;SDS011;75524;50.698;7.196;2024-01-10T13:40:43;26.80;;;9.77;;
85156;SDS011;75524;50.698;7.196;2024-01-10T13:43:10;30.53;;;10.17;;
85156;SDS011;75524;50.698;7.196;2024-01-10T13:45:36;29.70;;;10.97;;
85156;SDS011;75524;50.698;7.196;2024-01-10T13:48:05;23.20;;;9.83;;
85156;SDS011;75524;50.698;7.196;2024-01-10T13:50:32;22.33;;;8.37;;
85156;SDS011;75524;50.698;7.196;2024-01-10T13:52:59;23.70;;;8.60;;
85156;SDS011;75524;50.698;7.196;2024-01-10T13:55:26;16.93;;;7.67;;
85156;SDS011;75524;50.698;7.196;2024-01-10T13:57:52;15.07;;;6.33;;
85156;SDS011;75524;50.698;7.196;2024-01-10T14:00:19;25.73;;;9.33;;
85156;SDS011;75524;50.698;7.196;2024-01-10T14:02:46;21.83;;;6.90;;
85156;SDS011;75524;50.698;7.196;2024-01-10T14:05:13;17.33;;;7.33;;
85156;SDS011;75524;50.698;7.196;2024-01-10T14:07:40;16.17;;;6.83;;
85156;SDS011;75524;50.698;7.196;2024-01-10T14:10:10;16.67;;;6.93;;
85156;SDS011;75524;50.698;7.196;2024-01-10T14:12:37;54.87;;;21.03;;
85156;SDS011;75524;50.698;7.196;2024-01-10T14:15:04;20.60;;;8.47;;
85156;SDS011;75524;50.698;7.196;2024-01-10T14:17:31;19.13;;;8.40;;
85156;SDS011;75524;50.698;7.196;2024-01-10T14:19:58;23.43;;;8.10;;
85156;SDS011;75524;50.698;7.196;2024-01-10T14:22:24;19.10;;;7.03;;
85156;SDS011;75524;50.698;7.196;2024-01-10T14:24:57;15.77;;;7.03;;
85156;SDS011;75524;50.698;7.196;2024-01-10T14:27:28;21.50;;;9.47;;
85156;SDS011;75524;50.698;7.196;2024-01-10T14:29:55;21.33;;;9.03;;
85156;SDS011;75524;50.698;7.196;2024-01-10T14:32:21;14.43;;;5.63;;
85156;SDS011;75524;50.698;7.196;2024-01-10T14:34:50;25.50;;;10.63;;
85156;SDS011;75524;50.698;7.196;2024-01-10T14:37:16;22.33;;;7.50;;
85156;SDS011;75524;50.698;7.196;2024-01-10T14:39:43;20.27;;;5.27;;
85156;SDS011;75524;50.698;7.196;2024-01-10T14:42:10;20.60;;;6.43;;
85156;SDS011;75524;50.698;7.196;2024-01-10T14:44:37;20.93;;;8.33;;
85156;SDS011;75524;50.698;7.196;2024-01-10T14:47:04;22.00;;;7.70;;
85156;SDS011;75524;50.698;7.196;2024-01-10T14:49:37;52.40;;;12.93;;
85156;SDS011;75524;50.698;7.196;2024-01-10T14:52:05;17.00;;;7.07;;
85156;SDS011;75524;50.698;7.196;2024-01-10T14:54:32;23.63;;;9.97;;
85156;SDS011;75524;50.698;7.196;2024-01-10T14:56:58;23.83;;;7.87;;
85156;SDS011;75524;50.698;7.196;2024-01-10T14:59:25;36.10;;;7.40;;
85156;SDS011;75524;50.698;7.196;2024-01-10T15:02:05;36.80;;;9.27;;
85156;SDS011;75524;50.698;7.196;2024-01-10T15:04:39;19.77;;;7.40;;